sensor_id;sensor_type;location;lat;lon;timestamp;P1;durP1;ratioP1;P2;durP2;ratioP2
56373;SDS011;58212;47.034;7.376;2022-11-15T00:01:57;3.97;;;2.95;;
56373;SDS011;58212;47.034;7.376;2022-11-15T00:04:44;3.78;;;3.20;;
56373;SDS011;58212;47.034;7.376;2022-11-15T00:07:29;5.43;;;3.15;;
56373;SDS011;58212;47.034;7.376;2022-11-15T00:10:15;3.92;;;3.05;;
56373;SDS011;58212;47.034;7.376;2022-11-15T00:13:03;4.88;;;2.50;;
56373;SDS011;58212;47.034;7.376;2022-11-15T00:15:50;3.65;;;2.28;;
56373;SDS011;58212;47.034;7.376;2022-11-15T00:18:37;3.05;;;2.60;;
56373;SDS011;58212;47.034;7.376;2022-11-15T00:21:24;3.08;;;2.78;;
56373;SDS011;58212;47.034;7.376;2022-11-15T00:24:10;3.45;;;3.00;;
56373;SDS011;58212;47.034;7.376;2022-11-15T00:26:58;3.95;;;3.20;;
56373;SDS011;58212;47.034;7.376;2022-11-15T00:29:43;3.15;;;2.72;;
56373;SDS011;58212;47.034;7.376;2022-11-15T00:32:30;4.85;;;3.13;;
56373;SDS011;58212;47.034;7.376;2022-11-15T00:35:16;4.05;;;2.90;;
56373;SDS011;58212;47.034;7.376;2022-11-15T00:38:04;3.45;;;3.08;;
56373;SDS011;58212;47.034;7.376;2022-11-15T00:40:50;5.00;;;3.75;;
56373;SDS011;58212;47.034;7.376;2022-11-15T00:43:36;3.33;;;3.03;;
56373;SDS011;58212;47.034;7.376;2022-11-15T00:46:24;3.25;;;2.92;;
56373;SDS011;58212;47.034;7.376;2022-11-15T00:49:10;4.28;;;3.40;;
56373;SDS011;58212;47.034;7.376;2022-11-15T00:51:56;3.50;;;3.17;;
56373;SDS011;58212;47.034;7.376;2022-11-15T00:54:43;3.38;;;3.08;;
56373;SDS011;58212;47.034;7.376;2022-11-15T00:57:28;3.55;;;3.22;;
56373;SDS011;58212;47.034;7.376;2022-11-15T01:00:14;4.03;;;3.30;;
56373;SDS011;58212;47.034;7.376;2022-11-15T01:03:00;3.83;;;3.05;;
56373;SDS011;58212;47.034;7.376;2022-11-15T01:05:45;4.40;;;3.15;;
56373;SDS011;58212;47.034;7.376;2022-11-15T01:08:31;3.60;;;3.20;;
56373;SDS011;58212;47.034;7.376;2022-11-15T01:11:18;4.15;;;3.13;;
56373;SDS011;58212;47.034;7.376;2022-11-15T01:14:04;3.75;;;3.13;;
56373;SDS011;58212;47.034;7.376;2022-11-15T01:16:49;3.95;;;3.20;;
56373;SDS011;58212;47.034;7.376;2022-11-15T01:19:35;4.05;;;3.60;;
56373;SDS011;58212;47.034;7.376;2022-11-15T01:22:21;5.07;;;3.03;;
56373;SDS011;58212;47.034;7.376;2022-11-15T01:25:07;3.92;;;3.20;;
56373;SDS011;58212;47.034;7.376;2022-11-15T01:27:54;3.65;;;2.85;;
56373;SDS011;58212;47.034;7.376;2022-11-15T01:30:40;3.45;;;3.10;;
56373;SDS011;58212;47.034;7.376;2022-11-15T01:33:25;4.22;;;3.08;;
56373;SDS011;58212;47.034;7.376;2022-11-15T01:36:12;3.90;;;2.83;;
56373;SDS011;58212;47.034;7.376;2022-11-15T01:38:59;3.25;;;2.95;;
56373;SDS011;58212;47.034;7.376;2022-11-15T01:41:45;4.13;;;3.20;;
56373;SDS011;58212;47.034;7.376;2022-11-15T01:44:39;4.38;;;3.30;;
56373;SDS011;58212;47.034;7.376;2022-11-15T01:47:27;3.63;;;2.90;;
56373;SDS011;58212;47.034;7.376;2022-11-15T01:50:17;5.43;;;3.08;;
56373;SDS011;58212;47.034;7.376;2022-11-15T01:53:05;4.68;;;3.20;;
56373;SDS011;58212;47.034;7.376;2022-11-15T01:55:51;6.20;;;4.22;;
56373;SDS011;58212;47.034;7.376;2022-11-15T01:58:38;5.32;;;4.82;;
56373;SDS011;58212;47.034;7.376;2022-11-15T02:01:26;6.22;;;3.80;;
56373;SDS011;58212;47.034;7.376;2022-11-15T02:04:16;4.40;;;4.00;;
56373;SDS011;58212;47.034;7.376;2022-11-15T02:07:05;4.25;;;3.53;;
56373;SDS011;58212;47.034;7.376;2022-11-15T02:09:53;4.55;;;3.58;;
56373;SDS011;58212;47.034;7.376;2022-11-15T02:12:39;4.20;;;3.22;;
56373;SDS011;58212;47.034;7.376;2022-11-15T02:15:27;4.18;;;3.28;;
56373;SDS011;58212;47.034;7.376;2022-11-15T02:18:22;5.15;;;3.90;;
56373;SDS011;58212;47.034;7.376;2022-11-15T02:21:14;5.70;;;3.70;;
56373;SDS011;58212;47.034;7.376;2022-11-15T02:27:33;4.13;;;3.17;;
56373;SDS011;58212;47.034;7.376;2022-11-15T02:30:37;4.13;;;3.28;;
56373;SDS011;58212;47.034;7.376;2022-11-15T02:33:30;3.95;;;3.58;;
56373;SDS011;58212;47.034;7.376;2022-11-15T02:36:26;4.32;;;3.50;;
56373;SDS011;58212;47.034;7.376;2022-11-15T02:39:20;4.50;;;3.55;;
56373;SDS011;58212;47.034;7.376;2022-11-15T02:42:13;4.97;;;3.83;;
56373;SDS011;58212;47.034;7.376;2022-11-15T02:45:21;5.25;;;3.58;;
56373;SDS011;58212;47.034;7.376;2022-11-15T02:48:12;4.45;;;3.42;;
56373;SDS011;58212;47.034;7.376;2022-11-15T02:51:00;4.20;;;3.80;;
56373;SDS011;58212;47.034;7.376;2022-11-15T02:53:46;4.07;;;3.75;;
56373;SDS011;58212;47.034;7.376;2022-11-15T02:56:32;4.68;;;3.60;;
56373;SDS011;58212;47.034;7.376;2022-11-15T02:59:24;5.15;;;3.63;;
56373;SDS011;58212;47.034;7.376;2022-11-15T03:02:29;4.05;;;3.50;;
56373;SDS011;58212;47.034;7.376;2022-11-15T03:05:30;5.03;;;4.35;;
56373;SDS011;58212;47.034;7.376;2022-11-15T03:08:21;4.05;;;3.53;;
56373;SDS011;58212;47.034;7.376;2022-11-15T03:11:14;4.07;;;3.70;;
56373;SDS011;58212;47.034;7.376;2022-11-15T03:14:02;6.53;;;4.15;;
56373;SDS011;58212;47.034;7.376;2022-11-15T03:16:56;5.93;;;4.05;;
56373;SDS011;58212;47.034;7.376;2022-11-15T03:19:49;4.50;;;3.97;;
56373;SDS011;58212;47.034;7.376;2022-11-15T03:22:40;3.80;;;3.50;;
56373;SDS011;58212;47.034;7.376;2022-11-15T03:25:28;4.40;;;3.90;;
56373;SDS011;58212;47.034;7.376;2022-11-15T03:28:16;7.95;;;4.22;;
56373;SDS011;58212;47.034;7.376;2022-11-15T03:31:07;4.40;;;4.00;;
56373;SDS011;58212;47.034;7.376;2022-11-15T03:34:10;6.50;;;3.97;;
56373;SDS011;58212;47.034;7.376;2022-11-15T03:37:03;5.50;;;4.20;;
56373;SDS011;58212;47.034;7.376;2022-11-15T03:39:52;5.85;;;3.67;;
56373;SDS011;58212;47.034;7.376;2022-11-15T03:42:38;4.65;;;4.25;;
56373;SDS011;58212;47.034;7.376;2022-11-15T03:45:31;5.28;;;4.10;;
56373;SDS011;58212;47.034;7.376;2022-11-15T03:48:24;4.93;;;4.10;;
56373;SDS011;58212;47.034;7.376;2022-11-15T03:51:12;5.15;;;4.65;;
56373;SDS011;58212;47.034;7.376;2022-11-15T03:53:58;4.93;;;4.22;;
56373;SDS011;58212;47.034;7.376;2022-11-15T03:56:45;5.72;;;4.20;;
56373;SDS011;58212;47.034;7.376;2022-11-15T03:59:31;4.30;;;3.90;;
56373;SDS011;58212;47.034;7.376;2022-11-15T04:02:16;5.50;;;4.53;;
56373;SDS011;58212;47.034;7.376;2022-11-15T04:05:02;4.28;;;3.60;;
56373;SDS011;58212;47.034;7.376;2022-11-15T04:07:47;3.60;;;3.30;;
56373;SDS011;58212;47.034;7.376;2022-11-15T04:10:33;4.20;;;3.60;;
56373;SDS011;58212;47.034;7.376;2022-11-15T04:13:21;4.95;;;3.70;;
56373;SDS011;58212;47.034;7.376;2022-11-15T04:16:06;6.25;;;3.65;;
56373;SDS011;58212;47.034;7.376;2022-11-15T04:18:52;4.22;;;3.72;;
56373;SDS011;58212;47.034;7.376;2022-11-15T04:21:52;4.45;;;3.90;;
56373;SDS011;58212;47.034;7.376;2022-11-15T04:24:55;4.13;;;3.10;;
56373;SDS011;58212;47.034;7.376;2022-11-15T04:27:40;6.25;;;3.45;;
56373;SDS011;58212;47.034;7.376;2022-11-15T04:30:27;4.22;;;3.55;;
56373;SDS011;58212;47.034;7.376;2022-11-15T04:33:12;5.40;;;3.63;;
56373;SDS011;58212;47.034;7.376;2022-11-15T04:35:59;5.05;;;3.65;;
56373;SDS011;58212;47.034;7.376;2022-11-15T04:39:02;4.13;;;3.20;;
56373;SDS011;58212;47.034;7.376;2022-11-15T04:41:47;4.43;;;3.35;;
56373;SDS011;58212;47.034;7.376;2022-11-15T04:44:33;3.92;;;3.55;;
56373;SDS011;58212;47.034;7.376;2022-11-15T04:47:20;4.03;;;3.50;;
56373;SDS011;58212;47.034;7.376;2022-11-15T04:50:06;4.32;;;3.58;;
56373;SDS011;58212;47.034;7.376;2022-11-15T04:52:52;5.25;;;3.35;;
56373;SDS011;58212;47.034;7.376;2022-11-15T04:55:39;4.97;;;3.70;;
56373;SDS011;58212;47.034;7.376;2022-11-15T04:58:24;6.80;;;3.60;;
56373;SDS011;58212;47.034;7.376;2022-11-15T05:01:10;3.55;;;3.03;;
56373;SDS011;58212;47.034;7.376;2022-11-15T05:03:59;4.07;;;3.65;;
56373;SDS011;58212;47.034;7.376;2022-11-15T05:07:02;4.68;;;3.13;;
56373;SDS011;58212;47.034;7.376;2022-11-15T05:09:48;4.07;;;3.67;;
56373;SDS011;58212;47.034;7.376;2022-11-15T05:12:34;6.53;;;3.42;;
56373;SDS011;58212;47.034;7.376;2022-11-15T05:15:19;5.22;;;3.38;;
56373;SDS011;58212;47.034;7.376;2022-11-15T05:18:05;4.38;;;3.38;;
56373;SDS011;58212;47.034;7.376;2022-11-15T05:20:52;3.28;;;2.97;;
56373;SDS011;58212;47.034;7.376;2022-11-15T05:23:37;3.80;;;3.50;;
56373;SDS011;58212;47.034;7.376;2022-11-15T05:26:24;4.60;;;3.30;;
56373;SDS011;58212;47.034;7.376;2022-11-15T05:29:10;3.53;;;3.20;;
56373;SDS011;58212;47.034;7.376;2022-11-15T05:31:56;5.05;;;3.78;;
56373;SDS011;58212;47.034;7.376;2022-11-15T05:34:41;3.60;;;3.30;;
56373;SDS011;58212;47.034;7.376;2022-11-15T05:37:29;5.20;;;3.60;;
56373;SDS011;58212;47.034;7.376;2022-11-15T05:40:16;4.75;;;3.78;;
56373;SDS011;58212;47.034;7.376;2022-11-15T05:43:02;4.38;;;3.35;;
56373;SDS011;58212;47.034;7.376;2022-11-15T05:46:08;4.50;;;3.67;;
56373;SDS011;58212;47.034;7.376;2022-11-15T05:49:02;5.05;;;3.70;;
56373;SDS011;58212;47.034;7.376;2022-11-15T05:51:51;4.00;;;3.60;;
56373;SDS011;58212;47.034;7.376;2022-11-15T05:54:40;6.13;;;3.50;;
56373;SDS011;58212;47.034;7.376;2022-11-15T05:57:26;3.53;;;3.22;;
56373;SDS011;58212;47.034;7.376;2022-11-15T06:00:12;4.07;;;3.67;;
56373;SDS011;58212;47.034;7.376;2022-11-15T06:02:58;4.03;;;3.70;;
56373;SDS011;58212;47.034;7.376;2022-11-15T06:05:44;4.78;;;3.38;;
56373;SDS011;58212;47.034;7.376;2022-11-15T06:08:31;4.50;;;4.10;;
56373;SDS011;58212;47.034;7.376;2022-11-15T06:11:18;5.20;;;4.30;;
56373;SDS011;58212;47.034;7.376;2022-11-15T06:14:04;4.60;;;4.10;;
56373;SDS011;58212;47.034;7.376;2022-11-15T06:16:50;6.05;;;4.07;;
56373;SDS011;58212;47.034;7.376;2022-11-15T06:19:36;6.95;;;4.00;;
56373;SDS011;58212;47.034;7.376;2022-11-15T06:22:22;4.57;;;3.50;;
56373;SDS011;58212;47.034;7.376;2022-11-15T06:25:08;3.83;;;3.50;;
56373;SDS011;58212;47.034;7.376;2022-11-15T06:27:55;5.07;;;3.13;;
56373;SDS011;58212;47.034;7.376;2022-11-15T06:30:43;5.18;;;3.22;;
56373;SDS011;58212;47.034;7.376;2022-11-15T06:33:28;5.53;;;3.45;;
56373;SDS011;58212;47.034;7.376;2022-11-15T06:36:14;5.15;;;3.53;;
56373;SDS011;58212;47.034;7.376;2022-11-15T06:39:01;4.03;;;3.63;;
56373;SDS011;58212;47.034;7.376;2022-11-15T06:41:46;5.45;;;3.45;;
56373;SDS011;58212;47.034;7.376;2022-11-15T06:44:34;4.20;;;3.75;;
56373;SDS011;58212;47.034;7.376;2022-11-15T06:47:19;4.88;;;3.40;;
56373;SDS011;58212;47.034;7.376;2022-11-15T06:50:05;4.07;;;3.70;;
56373;SDS011;58212;47.034;7.376;2022-11-15T06:52:54;4.05;;;3.28;;
56373;SDS011;58212;47.034;7.376;2022-11-15T06:55:45;4.95;;;4.30;;
56373;SDS011;58212;47.034;7.376;2022-11-15T06:58:30;6.03;;;4.32;;
56373;SDS011;58212;47.034;7.376;2022-11-15T07:01:18;4.65;;;4.22;;
56373;SDS011;58212;47.034;7.376;2022-11-15T07:04:03;5.88;;;4.75;;
56373;SDS011;58212;47.034;7.376;2022-11-15T07:06:49;6.63;;;6.00;;
56373;SDS011;58212;47.034;7.376;2022-11-15T07:09:34;4.85;;;4.40;;
56373;SDS011;58212;47.034;7.376;2022-11-15T07:12:20;5.70;;;4.50;;
56373;SDS011;58212;47.034;7.376;2022-11-15T07:15:06;5.22;;;4.70;;
56373;SDS011;58212;47.034;7.376;2022-11-15T07:17:54;7.72;;;5.22;;
56373;SDS011;58212;47.034;7.376;2022-11-15T07:20:40;8.85;;;5.80;;
56373;SDS011;58212;47.034;7.376;2022-11-15T07:23:26;7.90;;;4.80;;
56373;SDS011;58212;47.034;7.376;2022-11-15T07:26:11;5.57;;;4.65;;
56373;SDS011;58212;47.034;7.376;2022-11-15T07:28:57;6.13;;;5.45;;
56373;SDS011;58212;47.034;7.376;2022-11-15T07:31:42;8.35;;;6.82;;
56373;SDS011;58212;47.034;7.376;2022-11-15T07:34:30;8.80;;;6.88;;
56373;SDS011;58212;47.034;7.376;2022-11-15T07:37:15;10.57;;;7.95;;
56373;SDS011;58212;47.034;7.376;2022-11-15T07:40:01;12.65;;;7.32;;
56373;SDS011;58212;47.034;7.376;2022-11-15T07:42:47;9.20;;;7.82;;
56373;SDS011;58212;47.034;7.376;2022-11-15T07:45:39;7.78;;;5.20;;
56373;SDS011;58212;47.034;7.376;2022-11-15T07:48:26;6.35;;;5.45;;
56373;SDS011;58212;47.034;7.376;2022-11-15T07:51:13;7.72;;;5.13;;
56373;SDS011;58212;47.034;7.376;2022-11-15T07:54:00;5.07;;;4.53;;
56373;SDS011;58212;47.034;7.376;2022-11-15T07:56:45;6.35;;;4.95;;
56373;SDS011;58212;47.034;7.376;2022-11-15T07:59:31;6.20;;;5.60;;
56373;SDS011;58212;47.034;7.376;2022-11-15T08:02:16;7.22;;;5.90;;
56373;SDS011;58212;47.034;7.376;2022-11-15T08:05:02;7.85;;;7.15;;
56373;SDS011;58212;47.034;7.376;2022-11-15T08:07:50;7.15;;;5.72;;
56373;SDS011;58212;47.034;7.376;2022-11-15T08:10:35;5.47;;;4.93;;
56373;SDS011;58212;47.034;7.376;2022-11-15T08:13:22;6.93;;;6.03;;
56373;SDS011;58212;47.034;7.376;2022-11-15T08:16:07;4.78;;;4.32;;
56373;SDS011;58212;47.034;7.376;2022-11-15T08:18:53;5.20;;;3.70;;
56373;SDS011;58212;47.034;7.376;2022-11-15T08:21:38;5.78;;;4.80;;
56373;SDS011;58212;47.034;7.376;2022-11-15T08:24:25;9.52;;;6.10;;
56373;SDS011;58212;47.034;7.376;2022-11-15T08:27:11;7.53;;;6.82;;
56373;SDS011;58212;47.034;7.376;2022-11-15T08:29:59;6.90;;;6.13;;
56373;SDS011;58212;47.034;7.376;2022-11-15T08:32:45;7.25;;;6.53;;
56373;SDS011;58212;47.034;7.376;2022-11-15T08:35:31;7.10;;;6.40;;
56373;SDS011;58212;47.034;7.376;2022-11-15T08:38:16;7.60;;;6.90;;
56373;SDS011;58212;47.034;7.376;2022-11-15T08:41:04;8.77;;;8.02;;
56373;SDS011;58212;47.034;7.376;2022-11-15T08:43:49;7.60;;;6.90;;
56373;SDS011;58212;47.034;7.376;2022-11-15T08:46:35;8.00;;;6.50;;
56373;SDS011;58212;47.034;7.376;2022-11-15T08:49:21;8.27;;;7.45;;
56373;SDS011;58212;47.034;7.376;2022-11-15T08:52:07;5.68;;;5.18;;
56373;SDS011;58212;47.034;7.376;2022-11-15T08:54:53;8.38;;;5.47;;
56373;SDS011;58212;47.034;7.376;2022-11-15T08:57:39;6.68;;;5.88;;
56373;SDS011;58212;47.034;7.376;2022-11-15T09:00:25;6.25;;;5.65;;
56373;SDS011;58212;47.034;7.376;2022-11-15T09:03:10;5.20;;;4.70;;
56373;SDS011;58212;47.034;7.376;2022-11-15T09:05:56;9.50;;;8.45;;
56373;SDS011;58212;47.034;7.376;2022-11-15T09:08:43;22.00;;;19.90;;
56373;SDS011;58212;47.034;7.376;2022-11-15T09:11:29;18.17;;;16.27;;
56373;SDS011;58212;47.034;7.376;2022-11-15T09:14:16;6.93;;;5.63;;
56373;SDS011;58212;47.034;7.376;2022-11-15T09:17:02;6.75;;;5.93;;
56373;SDS011;58212;47.034;7.376;2022-11-15T09:19:47;8.32;;;7.13;;
56373;SDS011;58212;47.034;7.376;2022-11-15T09:22:32;9.43;;;8.07;;
56373;SDS011;58212;47.034;7.376;2022-11-15T09:25:18;8.35;;;7.50;;
56373;SDS011;58212;47.034;7.376;2022-11-15T09:28:05;6.18;;;5.57;;
56373;SDS011;58212;47.034;7.376;2022-11-15T09:30:55;7.85;;;5.15;;
56373;SDS011;58212;47.034;7.376;2022-11-15T09:33:43;14.00;;;12.88;;
56373;SDS011;58212;47.034;7.376;2022-11-15T09:36:29;7.80;;;7.10;;
56373;SDS011;58212;47.034;7.376;2022-11-15T09:39:14;4.97;;;4.47;;
56373;SDS011;58212;47.034;7.376;2022-11-15T09:42:04;4.72;;;3.75;;
56373;SDS011;58212;47.034;7.376;2022-11-15T09:45:06;5.03;;;3.80;;
56373;SDS011;58212;47.034;7.376;2022-11-15T09:48:03;4.70;;;4.20;;
56373;SDS011;58212;47.034;7.376;2022-11-15T09:51:08;4.63;;;3.75;;
56373;SDS011;58212;47.034;7.376;2022-11-15T09:53:41;4.25;;;3.80;;
56373;SDS011;58212;47.034;7.376;2022-11-15T09:56:14;6.15;;;4.03;;
56373;SDS011;58212;47.034;7.376;2022-11-15T09:58:46;5.18;;;3.95;;
56373;SDS011;58212;47.034;7.376;2022-11-15T10:01:24;5.55;;;4.50;;
56373;SDS011;58212;47.034;7.376;2022-11-15T10:04:01;5.50;;;4.93;;
56373;SDS011;58212;47.034;7.376;2022-11-15T10:06:29;6.00;;;5.30;;
56373;SDS011;58212;47.034;7.376;2022-11-15T10:08:59;6.18;;;5.22;;
56373;SDS011;58212;47.034;7.376;2022-11-15T10:11:34;5.05;;;4.65;;
56373;SDS011;58212;47.034;7.376;2022-11-15T10:14:04;5.10;;;4.68;;
56373;SDS011;58212;47.034;7.376;2022-11-15T10:16:42;8.00;;;4.72;;
56373;SDS011;58212;47.034;7.376;2022-11-15T10:19:23;5.38;;;4.55;;
56373;SDS011;58212;47.034;7.376;2022-11-15T10:21:58;21.58;;;13.32;;
56373;SDS011;58212;47.034;7.376;2022-11-15T10:24:35;12.13;;;8.55;;
56373;SDS011;58212;47.034;7.376;2022-11-15T10:27:09;10.40;;;6.65;;
56373;SDS011;58212;47.034;7.376;2022-11-15T10:29:42;12.90;;;8.70;;
56373;SDS011;58212;47.034;7.376;2022-11-15T10:32:10;9.70;;;7.82;;
56373;SDS011;58212;47.034;7.376;2022-11-15T10:34:40;8.63;;;5.32;;
56373;SDS011;58212;47.034;7.376;2022-11-15T10:37:07;7.45;;;4.63;;
56373;SDS011;58212;47.034;7.376;2022-11-15T10:39:34;5.63;;;4.70;;
56373;SDS011;58212;47.034;7.376;2022-11-15T10:42:16;6.68;;;5.55;;
56373;SDS011;58212;47.034;7.376;2022-11-15T10:44:44;7.85;;;5.70;;
56373;SDS011;58212;47.034;7.376;2022-11-15T10:47:22;5.35;;;4.57;;
56373;SDS011;58212;47.034;7.376;2022-11-15T10:49:57;6.22;;;5.32;;
56373;SDS011;58212;47.034;7.376;2022-11-15T10:52:26;4.90;;;4.50;;
56373;SDS011;58212;47.034;7.376;2022-11-15T10:54:56;6.88;;;5.85;;
56373;SDS011;58212;47.034;7.376;2022-11-15T10:57:28;5.60;;;5.05;;
56373;SDS011;58212;47.034;7.376;2022-11-15T10:59:59;5.60;;;5.00;;
56373;SDS011;58212;47.034;7.376;2022-11-15T11:02:32;7.13;;;5.13;;
56373;SDS011;58212;47.034;7.376;2022-11-15T11:05:03;6.22;;;5.28;;
56373;SDS011;58212;47.034;7.376;2022-11-15T11:07:32;8.13;;;5.70;;
56373;SDS011;58212;47.034;7.376;2022-11-15T11:10:03;6.35;;;5.50;;
56373;SDS011;58212;47.034;7.376;2022-11-15T11:12:43;7.13;;;5.00;;
56373;SDS011;58212;47.034;7.376;2022-11-15T11:15:11;6.05;;;5.45;;
56373;SDS011;58212;47.034;7.376;2022-11-15T11:17:46;6.13;;;5.50;;
56373;SDS011;58212;47.034;7.376;2022-11-15T11:20:27;7.18;;;5.82;;
56373;SDS011;58212;47.034;7.376;2022-11-15T11:23:05;7.38;;;5.78;;
56373;SDS011;58212;47.034;7.376;2022-11-15T11:25:48;7.80;;;6.47;;
56373;SDS011;58212;47.034;7.376;2022-11-15T11:28:24;8.15;;;5.97;;
56373;SDS011;58212;47.034;7.376;2022-11-15T11:31:06;7.95;;;7.07;;
56373;SDS011;58212;47.034;7.376;2022-11-15T11:33:46;7.38;;;6.72;;
56373;SDS011;58212;47.034;7.376;2022-11-15T11:36:24;7.82;;;7.05;;
56373;SDS011;58212;47.034;7.376;2022-11-15T11:38:58;8.18;;;7.38;;
56373;SDS011;58212;47.034;7.376;2022-11-15T11:41:43;9.15;;;8.15;;
56373;SDS011;58212;47.034;7.376;2022-11-15T11:44:21;8.52;;;7.68;;
56373;SDS011;58212;47.034;7.376;2022-11-15T11:46:55;8.48;;;7.55;;
56373;SDS011;58212;47.034;7.376;2022-11-15T11:49:28;9.60;;;8.65;;
56373;SDS011;58212;47.034;7.376;2022-11-15T11:52:02;8.93;;;8.02;;
56373;SDS011;58212;47.034;7.376;2022-11-15T11:54:37;14.32;;;11.70;;
56373;SDS011;58212;47.034;7.376;2022-11-15T11:57:12;8.10;;;7.35;;
56373;SDS011;58212;47.034;7.376;2022-11-15T11:59:48;8.70;;;7.80;;
56373;SDS011;58212;47.034;7.376;2022-11-15T12:02:39;8.00;;;7.00;;
56373;SDS011;58212;47.034;7.376;2022-11-15T12:05:10;8.30;;;7.50;;
56373;SDS011;58212;47.034;7.376;2022-11-15T12:07:44;7.82;;;6.82;;
56373;SDS011;58212;47.034;7.376;2022-11-15T12:10:17;8.05;;;7.22;;
56373;SDS011;58212;47.034;7.376;2022-11-15T12:12:51;8.35;;;7.50;;
56373;SDS011;58212;47.034;7.376;2022-11-15T12:15:25;8.10;;;6.50;;
56373;SDS011;58212;47.034;7.376;2022-11-15T12:17:55;7.88;;;7.15;;
56373;SDS011;58212;47.034;7.376;2022-11-15T12:20:27;6.70;;;6.07;;
56373;SDS011;58212;47.034;7.376;2022-11-15T12:23:01;7.45;;;6.10;;
56373;SDS011;58212;47.034;7.376;2022-11-15T12:25:33;7.35;;;6.63;;
56373;SDS011;58212;47.034;7.376;2022-11-15T12:28:08;7.97;;;5.80;;
56373;SDS011;58212;47.034;7.376;2022-11-15T12:30:43;5.55;;;5.05;;
56373;SDS011;58212;47.034;7.376;2022-11-15T12:33:29;7.55;;;5.95;;
56373;SDS011;58212;47.034;7.376;2022-11-15T12:35:59;6.70;;;6.00;;
56373;SDS011;58212;47.034;7.376;2022-11-15T12:41:23;8.85;;;7.30;;
56373;SDS011;58212;47.034;7.376;2022-11-15T12:43:51;6.85;;;6.15;;
56373;SDS011;58212;47.034;7.376;2022-11-15T12:46:20;6.25;;;5.75;;
56373;SDS011;58212;47.034;7.376;2022-11-15T12:49:02;6.88;;;6.28;;
56373;SDS011;58212;47.034;7.376;2022-11-15T13:06:05;6.55;;;5.95;;
56373;SDS011;58212;47.034;7.376;2022-11-15T13:09:00;6.03;;;5.53;;
56373;SDS011;58212;47.034;7.376;2022-11-15T13:17:25;5.80;;;5.22;;
56373;SDS011;58212;47.034;7.376;2022-11-15T13:19:58;7.55;;;6.20;;
56373;SDS011;58212;47.034;7.376;2022-11-15T13:22:27;6.00;;;5.40;;
56373;SDS011;58212;47.034;7.376;2022-11-15T13:25:17;5.45;;;4.95;;
56373;SDS011;58212;47.034;7.376;2022-11-15T13:27:51;5.80;;;5.30;;
56373;SDS011;58212;47.034;7.376;2022-11-15T13:30:20;7.72;;;6.18;;
56373;SDS011;58212;47.034;7.376;2022-11-15T13:32:49;6.70;;;6.07;;
56373;SDS011;58212;47.034;7.376;2022-11-15T13:35:19;6.75;;;6.13;;
56373;SDS011;58212;47.034;7.376;2022-11-15T13:37:48;6.45;;;5.95;;
56373;SDS011;58212;47.034;7.376;2022-11-15T13:40:22;5.90;;;5.40;;
56373;SDS011;58212;47.034;7.376;2022-11-15T13:42:52;8.43;;;5.90;;
56373;SDS011;58212;47.034;7.376;2022-11-15T13:45:20;7.78;;;5.43;;
56373;SDS011;58212;47.034;7.376;2022-11-15T13:47:51;6.32;;;5.78;;
56373;SDS011;58212;47.034;7.376;2022-11-15T13:50:20;6.63;;;5.70;;
56373;SDS011;58212;47.034;7.376;2022-11-15T13:52:51;6.85;;;5.72;;
56373;SDS011;58212;47.034;7.376;2022-11-15T13:55:21;5.93;;;5.30;;
56373;SDS011;58212;47.034;7.376;2022-11-15T13:57:51;6.60;;;5.72;;
56373;SDS011;58212;47.034;7.376;2022-11-15T14:00:27;5.90;;;5.15;;
56373;SDS011;58212;47.034;7.376;2022-11-15T14:03:04;5.47;;;4.95;;
56373;SDS011;58212;47.034;7.376;2022-11-15T14:05:33;7.05;;;5.18;;
56373;SDS011;58212;47.034;7.376;2022-11-15T14:08:02;6.38;;;4.53;;
56373;SDS011;58212;47.034;7.376;2022-11-15T14:10:40;6.47;;;4.55;;
56373;SDS011;58212;47.034;7.376;2022-11-15T14:13:10;5.18;;;4.60;;
56373;SDS011;58212;47.034;7.376;2022-11-15T14:15:52;5.45;;;4.95;;
56373;SDS011;58212;47.034;7.376;2022-11-15T14:21:06;6.85;;;4.85;;
56373;SDS011;58212;47.034;7.376;2022-11-15T14:23:36;5.75;;;5.18;;
56373;SDS011;58212;47.034;7.376;2022-11-15T14:26:05;6.07;;;5.10;;
56373;SDS011;58212;47.034;7.376;2022-11-15T14:28:33;7.32;;;6.63;;
56373;SDS011;58212;47.034;7.376;2022-11-15T14:31:06;8.38;;;7.50;;
56373;SDS011;58212;47.034;7.376;2022-11-15T14:33:38;7.35;;;6.50;;
56373;SDS011;58212;47.034;7.376;2022-11-15T14:36:10;8.13;;;5.47;;
56373;SDS011;58212;47.034;7.376;2022-11-15T14:38:38;10.15;;;7.18;;
56373;SDS011;58212;47.034;7.376;2022-11-15T14:41:11;9.25;;;8.27;;
56373;SDS011;58212;47.034;7.376;2022-11-15T14:43:45;8.98;;;7.50;;
56373;SDS011;58212;47.034;7.376;2022-11-15T14:46:12;9.55;;;8.10;;
56373;SDS011;58212;47.034;7.376;2022-11-15T14:48:39;9.40;;;8.13;;
56373;SDS011;58212;47.034;7.376;2022-11-15T14:51:11;9.88;;;8.88;;
56373;SDS011;58212;47.034;7.376;2022-11-15T14:53:40;9.60;;;8.70;;
56373;SDS011;58212;47.034;7.376;2022-11-15T14:56:09;10.52;;;9.43;;
56373;SDS011;58212;47.034;7.376;2022-11-15T14:58:38;11.20;;;10.13;;
56373;SDS011;58212;47.034;7.376;2022-11-15T15:01:09;11.32;;;10.32;;
56373;SDS011;58212;47.034;7.376;2022-11-15T15:03:39;8.48;;;6.80;;
56373;SDS011;58212;47.034;7.376;2022-11-15T15:06:06;7.88;;;7.18;;
56373;SDS011;58212;47.034;7.376;2022-11-15T15:08:34;11.23;;;10.18;;
56373;SDS011;58212;47.034;7.376;2022-11-15T15:11:01;11.15;;;9.88;;
56373;SDS011;58212;47.034;7.376;2022-11-15T15:13:28;11.98;;;10.52;;
56373;SDS011;58212;47.034;7.376;2022-11-15T15:15:56;12.27;;;10.70;;
56373;SDS011;58212;47.034;7.376;2022-11-15T15:18:23;10.55;;;9.25;;
56373;SDS011;58212;47.034;7.376;2022-11-15T15:20:53;11.57;;;10.48;;
56373;SDS011;58212;47.034;7.376;2022-11-15T15:23:25;13.73;;;12.32;;
56373;SDS011;58212;47.034;7.376;2022-11-15T15:25:54;18.58;;;15.63;;
56373;SDS011;58212;47.034;7.376;2022-11-15T15:28:24;14.48;;;13.00;;
56373;SDS011;58212;47.034;7.376;2022-11-15T15:30:54;11.98;;;10.77;;
56373;SDS011;58212;47.034;7.376;2022-11-15T15:33:22;10.70;;;9.70;;
56373;SDS011;58212;47.034;7.376;2022-11-15T15:35:49;12.05;;;10.88;;
56373;SDS011;58212;47.034;7.376;2022-11-15T15:38:16;11.10;;;9.98;;
56373;SDS011;58212;47.034;7.376;2022-11-15T15:40:43;11.65;;;10.55;;
56373;SDS011;58212;47.034;7.376;2022-11-15T15:43:10;11.38;;;10.27;;
56373;SDS011;58212;47.034;7.376;2022-11-15T15:45:37;11.20;;;10.10;;
56373;SDS011;58212;47.034;7.376;2022-11-15T15:48:07;10.60;;;9.50;;
56373;SDS011;58212;47.034;7.376;2022-11-15T15:50:40;10.52;;;9.23;;
56373;SDS011;58212;47.034;7.376;2022-11-15T15:53:09;9.88;;;8.65;;
56373;SDS011;58212;47.034;7.376;2022-11-15T15:55:37;9.70;;;8.32;;
56373;SDS011;58212;47.034;7.376;2022-11-15T15:58:04;8.80;;;8.07;;
56373;SDS011;58212;47.034;7.376;2022-11-15T16:00:31;9.63;;;8.73;;
56373;SDS011;58212;47.034;7.376;2022-11-15T16:02:58;10.63;;;9.52;;
56373;SDS011;58212;47.034;7.376;2022-11-15T16:05:28;9.95;;;9.05;;
56373;SDS011;58212;47.034;7.376;2022-11-15T16:07:57;11.57;;;9.00;;
56373;SDS011;58212;47.034;7.376;2022-11-15T16:10:25;9.48;;;8.57;;
56373;SDS011;58212;47.034;7.376;2022-11-15T16:12:53;9.07;;;8.18;;
56373;SDS011;58212;47.034;7.376;2022-11-15T16:15:22;8.55;;;7.75;;
56373;SDS011;58212;47.034;7.376;2022-11-15T16:17:51;8.77;;;7.82;;
56373;SDS011;58212;47.034;7.376;2022-11-15T16:20:30;8.95;;;8.07;;
56373;SDS011;58212;47.034;7.376;2022-11-15T16:23:01;8.52;;;7.68;;
56373;SDS011;58212;47.034;7.376;2022-11-15T16:25:30;8.65;;;7.88;;
56373;SDS011;58212;47.034;7.376;2022-11-15T16:28:00;8.35;;;7.30;;
56373;SDS011;58212;47.034;7.376;2022-11-15T16:30:28;9.35;;;8.35;;
56373;SDS011;58212;47.034;7.376;2022-11-15T16:32:55;9.45;;;8.52;;
56373;SDS011;58212;47.034;7.376;2022-11-15T16:35:22;9.48;;;8.55;;
56373;SDS011;58212;47.034;7.376;2022-11-15T16:37:49;9.68;;;8.65;;
56373;SDS011;58212;47.034;7.376;2022-11-15T16:40:22;8.70;;;7.88;;